createdAt,value
2022-10-31T00:01:14.216Z,197.50
2022-10-31T00:03:40.857Z,200.25
2022-10-31T00:06:07.808Z,211.70
2022-10-31T00:08:35.186Z,209.93
2022-10-31T00:11:01.896Z,197.10
2022-10-31T00:13:28.546Z,210.93
2022-10-31T00:15:55.465Z,206.00
2022-10-31T00:18:22.039Z,202.48
2022-10-31T00:20:48.753Z,206.82
2022-10-31T00:23:15.646Z,172.75
2022-10-31T00:25:42.325Z,160.23
2022-10-31T00:28:12.905Z,145.02
2022-10-31T00:30:40.134Z,128.32
2022-10-31T00:33:06.793Z,135.98
2022-10-31T00:35:33.522Z,165.55
2022-10-31T00:38:00.551Z,165.82
2022-10-31T00:40:27.289Z,182.82
2022-10-31T00:42:54.142Z,156.68
2022-10-31T00:45:21.954Z,167.63
2022-10-31T00:47:48.647Z,145.88
2022-10-31T00:50:15.353Z,145.48
2022-10-31T00:52:42.114Z,145.70
2022-10-31T00:55:08.742Z,128.88
2022-10-31T00:57:35.618Z,118.50
2022-10-31T01:00:02.444Z,128.40
2022-10-31T01:02:29.334Z,113.65
2022-10-31T01:04:56.039Z,123.93
2022-10-31T01:07:23.135Z,114.45
2022-10-31T01:09:50.382Z,111.40
2022-10-31T01:12:17.027Z,85.43
2022-10-31T01:14:45.770Z,95.78
2022-10-31T01:17:13.337Z,75.53
2022-10-31T01:19:40.133Z,80.60
2022-10-31T01:22:07.119Z,71.60
2022-10-31T01:24:33.771Z,80.40
2022-10-31T01:27:00.515Z,76.40
2022-10-31T01:29:27.437Z,79.40
2022-10-31T01:31:54.056Z,95.30
2022-10-31T01:34:20.758Z,93.85
2022-10-31T01:36:52.317Z,107.25
2022-10-31T01:39:20.424Z,108.90
2022-10-31T01:41:53.594Z,98.88
2022-10-31T01:44:20.179Z,97.75
2022-10-31T01:46:53.781Z,113.53
2022-10-31T01:49:29.878Z,98.95
2022-10-31T01:52:02.002Z,126.13
2022-10-31T01:54:36.080Z,119.90
2022-10-31T01:57:04.554Z,115.28
2022-10-31T01:59:35.098Z,132.95
2022-10-31T02:02:02.238Z,132.43
2022-10-31T02:04:30.392Z,131.15
2022-10-31T02:07:03.905Z,140.15
2022-10-31T02:09:32.841Z,132.20
2022-10-31T02:12:00.506Z,151.10
2022-10-31T02:14:30.675Z,144.93
2022-10-31T02:16:58.000Z,153.43
2022-10-31T02:19:46.762Z,163.88
2022-10-31T02:22:21.191Z,163.98
2022-10-31T02:25:14.490Z,166.88
2022-10-31T02:28:12.183Z,159.05
2022-10-31T02:31:11.423Z,158.55
2022-10-31T02:33:53.512Z,157.82
2022-10-31T02:36:44.553Z,154.15
2022-10-31T02:39:35.926Z,165.63
2022-10-31T02:42:28.767Z,160.30
2022-10-31T02:45:20.699Z,158.05
2022-10-31T02:47:52.145Z,165.75
2022-10-31T02:50:27.454Z,157.45
2022-10-31T02:52:54.586Z,175.35
2022-10-31T02:55:24.244Z,159.07
2022-10-31T02:57:58.505Z,144.68
2022-10-31T03:00:25.927Z,150.88
2022-10-31T03:02:52.881Z,138.80
2022-10-31T03:05:31.738Z,144.85
2022-10-31T03:08:13.126Z,145.18
2022-10-31T03:10:42.820Z,135.07
2022-10-31T03:13:24.614Z,127.15
2022-10-31T03:15:54.815Z,138.05
2022-10-31T03:18:28.694Z,129.23
2022-10-31T03:21:02.770Z,133.32
2022-10-31T03:23:31.079Z,130.05
2022-10-31T03:25:58.743Z,122.85
2022-10-31T03:28:35.013Z,129.85
2022-10-31T03:31:06.488Z,117.32
2022-10-31T03:33:37.372Z,110.82
2022-10-31T03:36:07.419Z,115.03
2022-10-31T03:38:36.347Z,114.57
2022-10-31T03:41:06.834Z,107.35
2022-10-31T03:43:41.311Z,106.35
2022-10-31T03:46:09.443Z,117.03
2022-10-31T03:48:36.236Z,115.68
2022-10-31T03:51:09.709Z,96.53
2022-10-31T03:53:41.033Z,105.88
2022-10-31T03:56:36.034Z,93.10
2022-10-31T03:59:12.002Z,104.70
2022-10-31T04:01:44.155Z,90.22
2022-10-31T04:04:12.314Z,131.07
2022-10-31T04:06:41.943Z,117.28
2022-10-31T04:09:10.938Z,96.03
2022-10-31T04:11:43.726Z,112.25
2022-10-31T04:14:12.306Z,107.20
2022-10-31T04:16:43.914Z,121.45
2022-10-31T04:19:12.415Z,125.88
2022-10-31T04:21:39.049Z,130.77
2022-10-31T04:24:06.207Z,118.13
2022-10-31T04:26:32.864Z,128.15
2022-10-31T04:28:59.445Z,128.68
2022-10-31T04:31:26.148Z,130.77
2022-10-31T04:33:52.843Z,121.05
2022-10-31T04:36:19.485Z,129.40
2022-10-31T04:38:46.140Z,130.02
2022-10-31T04:41:13.341Z,130.57
2022-10-31T04:43:40.233Z,131.85
2022-10-31T04:46:06.842Z,137.60
2022-10-31T04:48:33.624Z,137.10
2022-10-31T04:51:03.925Z,143.68
2022-10-31T04:53:30.856Z,148.85
2022-10-31T04:56:00.673Z,138.77
2022-10-31T04:58:28.088Z,133.90
2022-10-31T05:00:56.093Z,136.70
2022-10-31T05:03:23.211Z,139.63
2022-10-31T05:05:49.899Z,144.82
2022-10-31T05:08:16.939Z,141.48
2022-10-31T05:10:43.712Z,145.77
2022-10-31T05:13:11.877Z,152.57
2022-10-31T05:15:38.740Z,138.32
2022-10-31T05:18:05.505Z,145.15
2022-10-31T05:20:32.474Z,144.55
2022-10-31T05:23:00.011Z,145.27
2022-10-31T05:25:29.014Z,134.30
2022-10-31T05:27:57.323Z,137.80
2022-10-31T05:30:27.442Z,144.80
2022-10-31T05:32:54.484Z,146.25
2022-10-31T05:35:32.742Z,149.35
2022-10-31T05:38:00.451Z,94.22
2022-10-31T05:40:28.594Z,68.00
2022-10-31T05:42:57.313Z,60.85
2022-10-31T05:45:24.767Z,71.88
2022-10-31T05:47:59.833Z,65.35
2022-10-31T05:50:28.728Z,52.05
2022-10-31T05:52:57.551Z,53.00
2022-10-31T05:55:24.492Z,67.82
2022-10-31T05:57:51.437Z,56.88
2022-10-31T06:00:18.889Z,52.80
2022-10-31T06:02:45.850Z,47.25
2022-10-31T06:05:13.242Z,52.08
2022-10-31T06:07:40.084Z,60.55
2022-10-31T06:10:08.583Z,52.25
2022-10-31T06:12:38.881Z,55.15
2022-10-31T06:15:06.895Z,54.40
2022-10-31T06:17:35.148Z,55.00
2022-10-31T06:20:02.824Z,52.95
2022-10-31T06:22:29.443Z,51.72
2022-10-31T06:24:56.299Z,55.22
2022-10-31T06:27:23.472Z,51.15
2022-10-31T06:29:50.073Z,52.88
2022-10-31T06:32:17.399Z,51.38
2022-10-31T06:34:44.996Z,50.95
2022-10-31T06:37:13.158Z,50.70
2022-10-31T06:39:40.126Z,53.78
2022-10-31T06:42:07.569Z,98.65
2022-10-31T06:44:34.249Z,107.22
2022-10-31T06:47:00.869Z,107.93
2022-10-31T06:49:27.673Z,92.15
2022-10-31T06:51:54.279Z,91.88
2022-10-31T06:54:21.085Z,102.40
2022-10-31T06:56:51.198Z,100.50
2022-10-31T06:59:18.016Z,100.05
2022-10-31T07:01:44.784Z,108.03
2022-10-31T07:04:12.368Z,117.97
2022-10-31T07:06:39.312Z,108.95
2022-10-31T07:09:06.827Z,111.53
2022-10-31T07:11:33.958Z,103.88
2022-10-31T07:14:00.641Z,98.05
2022-10-31T07:16:27.826Z,75.70
2022-10-31T07:18:54.629Z,58.97
2022-10-31T07:21:21.239Z,82.63
2022-10-31T07:23:50.742Z,68.32
2022-10-31T07:26:17.572Z,71.43
2022-10-31T07:28:44.378Z,59.30
2022-10-31T07:31:11.065Z,56.92
2022-10-31T07:33:37.861Z,61.40
2022-10-31T07:36:04.658Z,69.45
2022-10-31T07:38:31.334Z,75.88
2022-10-31T07:40:58.554Z,42.03
2022-10-31T07:43:25.313Z,23.55
2022-10-31T07:45:54.869Z,25.20
2022-10-31T07:48:22.061Z,28.15
2022-10-31T07:50:48.748Z,28.00
2022-10-31T07:53:15.936Z,24.88
2022-10-31T07:55:43.609Z,25.38
2022-10-31T07:58:13.183Z,22.73
2022-10-31T08:00:41.214Z,37.60
2022-10-31T08:03:10.975Z,54.03
2022-10-31T08:05:38.213Z,72.35
2022-10-31T08:08:06.099Z,85.07
2022-10-31T08:10:33.707Z,65.32
2022-10-31T08:13:12.523Z,43.22
2022-10-31T08:15:42.474Z,34.15
2022-10-31T08:18:14.816Z,34.78
2022-10-31T08:20:42.540Z,34.67
2022-10-31T08:23:11.104Z,35.75
2022-10-31T08:25:39.183Z,28.27
2022-10-31T08:28:07.750Z,37.08
2022-10-31T08:30:37.852Z,39.00
2022-10-31T08:33:04.576Z,45.97
2022-10-31T08:35:32.775Z,45.92
2022-10-31T08:37:59.986Z,41.40
2022-10-31T08:40:28.505Z,50.10
2022-10-31T08:43:11.656Z,47.30
2022-10-31T08:45:38.663Z,71.90
2022-10-31T08:48:07.114Z,44.10
2022-10-31T08:50:35.824Z,28.85
2022-10-31T08:53:19.469Z,32.80
2022-10-31T08:55:48.284Z,26.07
2022-10-31T08:58:19.496Z,27.13
2022-10-31T09:00:48.591Z,29.30
2022-10-31T09:03:33.259Z,27.23
2022-10-31T09:06:01.696Z,27.17
2022-10-31T09:08:31.126Z,28.60
2022-10-31T09:10:58.564Z,29.98
2022-10-31T09:13:28.183Z,29.10
2022-10-31T09:15:56.809Z,31.45
2022-10-31T09:18:24.565Z,30.73
2022-10-31T09:20:52.016Z,28.63
2022-10-31T09:23:21.878Z,29.75
2022-10-31T09:25:52.297Z,32.28
2022-10-31T09:28:23.920Z,30.90
2022-10-31T09:30:53.201Z,29.25
2022-10-31T09:33:20.024Z,30.02
2022-10-31T09:35:47.047Z,30.23
2022-10-31T09:38:16.901Z,28.75
2022-10-31T09:40:47.156Z,29.80
2022-10-31T09:43:37.286Z,29.17
2022-10-31T09:46:37.065Z,27.83
2022-10-31T09:49:03.784Z,31.02
2022-10-31T09:51:35.613Z,26.95
2022-10-31T09:54:22.025Z,27.70
2022-10-31T09:56:49.056Z,27.60
2022-10-31T09:59:26.833Z,28.92
2022-10-31T10:02:02.256Z,31.63
2022-10-31T10:04:38.133Z,28.90
2022-10-31T10:07:18.831Z,29.63
2022-10-31T10:09:46.183Z,32.50
2022-10-31T10:12:18.989Z,30.63
2022-10-31T10:14:58.467Z,36.22
2022-10-31T10:17:49.876Z,30.92
2022-10-31T10:20:43.351Z,27.17
2022-10-31T10:23:21.379Z,29.77
2022-10-31T10:25:55.080Z,28.52
2022-10-31T10:28:27.686Z,27.52
2022-10-31T10:31:12.767Z,25.40
2022-10-31T10:33:52.009Z,25.33
2022-10-31T10:36:29.921Z,28.77
2022-10-31T10:39:01.831Z,28.30
2022-10-31T10:41:34.691Z,26.60
2022-10-31T10:44:01.356Z,24.60
2022-10-31T10:47:01.906Z,22.55
2022-10-31T10:49:31.273Z,22.30
2022-10-31T10:52:45.921Z,22.10
2022-10-31T10:55:11.991Z,24.40
2022-10-31T10:58:00.023Z,20.80
2022-10-31T11:00:29.169Z,21.95
2022-10-31T11:02:56.403Z,24.63
2022-10-31T11:05:26.253Z,24.00
2022-10-31T11:07:53.056Z,22.65
2022-10-31T11:10:20.091Z,25.45
2022-10-31T11:13:04.351Z,27.25
2022-10-31T11:18:00.024Z,26.15
2022-10-31T11:20:37.253Z,23.75
2022-10-31T11:23:16.946Z,23.08
2022-10-31T11:25:51.875Z,24.02
2022-10-31T11:28:18.902Z,24.20
2022-10-31T11:30:50.508Z,36.30
2022-10-31T11:33:39.306Z,40.00
2022-10-31T11:36:28.196Z,40.17
2022-10-31T11:38:56.219Z,38.30
2022-10-31T11:41:32.812Z,37.67
2022-10-31T11:44:03.224Z,36.42
2022-10-31T11:46:51.050Z,37.72
2022-10-31T11:49:20.083Z,36.38
2022-10-31T11:51:54.063Z,38.33
2022-10-31T11:54:29.792Z,35.33
2022-10-31T11:56:56.577Z,42.03
2022-10-31T11:59:27.661Z,37.47
2022-10-31T12:01:56.167Z,37.85
2022-10-31T12:04:36.739Z,35.70
2022-10-31T12:07:03.986Z,35.05
2022-10-31T12:09:34.661Z,34.72
2022-10-31T12:12:12.563Z,32.72
2022-10-31T12:14:54.533Z,33.10
2022-10-31T12:17:26.912Z,32.67
2022-10-31T12:20:22.130Z,31.17
2022-10-31T12:23:36.635Z,31.90
2022-10-31T12:26:28.261Z,33.97
2022-10-31T12:29:08.706Z,31.23
2022-10-31T12:31:54.017Z,42.75
2022-10-31T12:34:38.922Z,37.92
2022-10-31T12:37:14.715Z,41.95
2022-10-31T12:39:47.336Z,35.40
2022-10-31T12:42:21.360Z,39.55
2022-10-31T12:45:00.451Z,35.22
2022-10-31T12:47:35.876Z,39.67
2022-10-31T12:50:30.777Z,40.92
2022-10-31T12:53:31.663Z,37.35
2022-10-31T12:56:13.825Z,36.33
2022-10-31T12:58:48.180Z,35.70
2022-10-31T13:01:25.795Z,34.38
2022-10-31T13:04:14.351Z,32.20
2022-10-31T13:06:50.112Z,31.73
2022-10-31T13:09:22.079Z,31.65
2022-10-31T13:11:57.989Z,34.60
2022-10-31T13:14:52.949Z,27.90
2022-10-31T13:17:25.758Z,24.98
2022-10-31T13:20:13.341Z,27.05
2022-10-31T13:22:43.166Z,28.27
2022-10-31T13:25:09.715Z,33.03
2022-10-31T13:27:50.531Z,28.30
2022-10-31T13:30:18.775Z,30.45
2022-10-31T13:33:02.208Z,28.70
2022-10-31T13:35:29.116Z,31.87
2022-10-31T13:38:23.338Z,34.13
2022-10-31T13:41:05.442Z,25.42
2022-10-31T13:43:53.765Z,25.55
2022-10-31T13:46:40.228Z,23.30
2022-10-31T13:49:31.816Z,30.15
2022-10-31T13:52:14.529Z,25.27
2022-10-31T13:54:58.160Z,25.75
2022-10-31T13:57:40.126Z,24.80
2022-10-31T14:00:26.135Z,24.90
2022-10-31T14:02:56.868Z,22.70
2022-10-31T14:05:34.116Z,25.58
2022-10-31T14:08:05.383Z,24.17
2022-10-31T14:10:39.395Z,23.80
2022-10-31T14:13:20.843Z,22.92
2022-10-31T14:16:25.592Z,25.65
2022-10-31T14:19:06.228Z,21.30
2022-10-31T14:21:41.372Z,24.30
2022-10-31T14:24:25.872Z,29.85
2022-10-31T14:29:30.718Z,21.42
2022-10-31T14:32:06.338Z,22.58
2022-10-31T14:34:56.186Z,23.05
2022-10-31T14:37:32.089Z,24.58
2022-10-31T14:40:09.825Z,23.90
2022-10-31T14:42:52.095Z,23.60
2022-10-31T14:45:33.637Z,31.05
2022-10-31T14:48:26.462Z,25.05
2022-10-31T14:50:56.963Z,24.40
2022-10-31T14:53:29.242Z,21.83
2022-10-31T14:55:59.471Z,22.40
2022-10-31T14:58:45.222Z,23.60
2022-10-31T15:01:28.539Z,24.25
2022-10-31T15:06:57.102Z,22.10
2022-10-31T15:09:35.783Z,24.10
2022-10-31T15:12:25.861Z,22.63
2022-10-31T15:14:53.520Z,23.02
2022-10-31T15:17:21.767Z,22.02
2022-10-31T15:19:48.616Z,22.67
2022-10-31T15:22:18.430Z,24.52
2022-10-31T15:24:46.185Z,23.08
2022-10-31T15:27:18.910Z,23.30
2022-10-31T15:29:53.509Z,23.92
2022-10-31T15:32:30.265Z,24.40
2022-10-31T15:34:58.290Z,24.17
2022-10-31T15:37:26.956Z,22.98
2022-10-31T15:39:53.927Z,23.67
2022-10-31T15:42:26.534Z,24.88
2022-10-31T15:45:07.089Z,26.80
2022-10-31T15:47:34.692Z,27.50
2022-10-31T15:50:03.283Z,27.85
2022-10-31T15:52:48.007Z,26.90
2022-10-31T15:55:16.715Z,24.45
2022-10-31T15:57:46.404Z,23.55
2022-10-31T16:00:33.111Z,23.83
2022-10-31T16:03:06.918Z,24.27
2022-10-31T16:05:38.423Z,23.25
2022-10-31T16:08:06.220Z,23.10
2022-10-31T16:10:36.432Z,23.90
2022-10-31T16:13:04.150Z,23.55
2022-10-31T16:15:30.999Z,24.13
2022-10-31T16:18:01.432Z,22.48
2022-10-31T16:20:33.019Z,23.27
2022-10-31T16:23:01.546Z,24.73
2022-10-31T16:25:34.822Z,24.08
2022-10-31T16:28:18.895Z,23.55
2022-10-31T16:30:48.653Z,25.20
2022-10-31T16:33:37.251Z,24.73
2022-10-31T16:36:35.289Z,22.83
2022-10-31T16:39:04.172Z,23.77
2022-10-31T16:41:31.294Z,24.85
2022-10-31T16:43:58.004Z,24.77
2022-10-31T16:46:28.737Z,27.75
2022-10-31T16:48:55.710Z,24.38
2022-10-31T16:51:22.416Z,25.20
2022-10-31T16:53:53.231Z,23.70
2022-10-31T16:56:28.707Z,25.35
2022-10-31T16:58:55.712Z,25.13
2022-10-31T17:01:23.225Z,27.33
2022-10-31T17:03:50.050Z,29.48
2022-10-31T17:06:17.638Z,27.20
2022-10-31T17:08:44.401Z,25.95
2022-10-31T17:11:22.089Z,24.92
2022-10-31T17:13:49.178Z,29.45
2022-10-31T17:16:15.980Z,27.55
2022-10-31T17:18:43.860Z,27.13
2022-10-31T17:21:18.506Z,26.55
2022-10-31T17:23:45.236Z,24.50
2022-10-31T17:26:11.951Z,28.20
2022-10-31T17:28:38.731Z,27.05
2022-10-31T17:31:05.634Z,26.00
2022-10-31T17:33:32.285Z,26.52
2022-10-31T17:35:58.950Z,26.98
2022-10-31T17:38:25.636Z,27.50
2022-10-31T17:40:52.368Z,28.02
2022-10-31T17:43:19.045Z,26.17
2022-10-31T17:45:46.009Z,29.02
2022-10-31T17:48:13.129Z,30.02
2022-10-31T17:50:40.146Z,30.05
2022-10-31T17:53:06.845Z,30.77
2022-10-31T17:55:37.183Z,28.73
2022-10-31T17:58:04.545Z,28.30
2022-10-31T18:00:31.503Z,27.25
2022-10-31T18:02:58.862Z,29.70
2022-10-31T18:05:25.799Z,29.45
2022-10-31T18:07:52.802Z,26.38
2022-10-31T18:10:19.831Z,27.77
2022-10-31T18:12:48.664Z,27.10
2022-10-31T18:15:16.595Z,25.67
2022-10-31T18:17:43.577Z,26.05
2022-10-31T18:20:10.609Z,28.90
2022-10-31T18:22:37.627Z,30.38
2022-10-31T18:25:05.342Z,31.63
2022-10-31T18:27:32.010Z,29.45
2022-10-31T18:29:59.033Z,26.55
2022-10-31T18:32:25.921Z,29.98
2022-10-31T18:34:52.548Z,29.58
2022-10-31T18:37:19.402Z,29.55
2022-10-31T18:39:46.159Z,29.70
2022-10-31T18:42:13.009Z,29.42
2022-10-31T18:44:39.946Z,32.70
2022-10-31T18:47:06.553Z,29.83
2022-10-31T18:49:33.675Z,27.15
2022-10-31T18:52:00.893Z,27.00
2022-10-31T18:54:27.625Z,36.83
2022-10-31T18:56:54.775Z,30.15
2022-10-31T18:59:21.783Z,27.83
2022-10-31T19:01:48.797Z,29.10
2022-10-31T19:04:15.620Z,30.27
2022-10-31T19:06:42.699Z,29.48
2022-10-31T19:09:12.246Z,27.52
2022-10-31T19:11:39.438Z,27.10
2022-10-31T19:14:09.074Z,27.40
2022-10-31T19:16:35.874Z,28.92
2022-10-31T19:19:02.864Z,32.45
2022-10-31T19:21:32.336Z,30.08
2022-10-31T19:24:00.716Z,27.52
2022-10-31T19:26:28.830Z,25.65
2022-10-31T19:28:56.484Z,28.42
2022-10-31T19:31:23.183Z,27.42
2022-10-31T19:33:49.871Z,25.88
2022-10-31T19:36:19.056Z,28.65
2022-10-31T19:38:50.686Z,27.00
2022-10-31T19:41:20.796Z,29.88
2022-10-31T19:43:47.424Z,33.92
2022-10-31T19:46:22.176Z,28.05
2022-10-31T19:48:55.037Z,30.48
2022-10-31T19:51:21.872Z,29.20
2022-10-31T19:53:52.286Z,27.27
2022-10-31T19:56:23.153Z,26.42
2022-10-31T19:58:49.827Z,26.40
2022-10-31T20:01:19.210Z,31.52
2022-10-31T20:03:47.020Z,27.45
2022-10-31T20:06:26.664Z,27.48
2022-10-31T20:08:55.977Z,26.02
2022-10-31T20:11:26.915Z,29.65
2022-10-31T20:13:59.089Z,27.60
2022-10-31T20:16:26.822Z,26.45
2022-10-31T20:18:54.402Z,28.70
2022-10-31T20:21:25.223Z,26.48
2022-10-31T20:24:00.071Z,28.00
2022-10-31T20:26:27.646Z,27.05
2022-10-31T20:28:56.341Z,29.95
2022-10-31T20:31:26.298Z,29.48
2022-10-31T20:33:53.678Z,30.10
2022-10-31T20:36:22.963Z,29.40
2022-10-31T20:38:50.982Z,28.23
2022-10-31T20:41:18.271Z,30.70
2022-10-31T20:43:45.737Z,31.50
2022-10-31T20:46:15.150Z,30.48
2022-10-31T20:48:42.130Z,28.08
2022-10-31T20:51:13.257Z,27.45
2022-10-31T20:53:40.129Z,30.10
2022-10-31T20:56:10.373Z,28.50
2022-10-31T20:58:38.761Z,28.75
2022-10-31T21:01:10.863Z,31.52
2022-10-31T21:03:37.983Z,29.00
2022-10-31T21:06:05.363Z,31.25
2022-10-31T21:08:33.230Z,28.73
2022-10-31T21:11:00.812Z,28.70
2022-10-31T21:13:31.867Z,31.67
2022-10-31T21:16:01.686Z,33.78
2022-10-31T21:18:28.470Z,35.00
2022-10-31T21:20:55.132Z,30.45
2022-10-31T21:23:22.221Z,30.10
2022-10-31T21:25:48.901Z,29.02
2022-10-31T21:28:16.160Z,31.40
2022-10-31T21:30:44.493Z,29.77
2022-10-31T21:33:11.625Z,32.22
2022-10-31T21:35:38.651Z,33.10
2022-10-31T21:38:05.420Z,32.20
2022-10-31T21:40:32.515Z,32.13
2022-10-31T21:42:59.551Z,45.85
2022-10-31T21:45:26.775Z,33.63
2022-10-31T21:47:53.648Z,28.48
2022-10-31T21:50:20.445Z,28.80
2022-10-31T21:52:47.298Z,31.38
2022-10-31T21:55:13.898Z,30.52
2022-10-31T21:57:40.444Z,32.08
2022-10-31T22:00:09.263Z,33.60
2022-10-31T22:02:37.179Z,32.95
2022-10-31T22:05:04.124Z,31.15
2022-10-31T22:07:32.260Z,34.10
2022-10-31T22:09:58.847Z,32.33
2022-10-31T22:12:25.767Z,33.92
2022-10-31T22:14:52.632Z,31.85
2022-10-31T22:17:19.221Z,31.63
2022-10-31T22:19:45.808Z,32.38
2022-10-31T22:22:13.274Z,31.85
2022-10-31T22:24:40.187Z,29.73
2022-10-31T22:27:06.836Z,31.15
2022-10-31T22:29:35.453Z,31.48
2022-10-31T22:32:03.476Z,33.08
2022-10-31T22:34:30.118Z,33.78
2022-10-31T22:36:57.156Z,34.92
2022-10-31T22:39:23.877Z,31.90
2022-10-31T22:41:50.531Z,28.67
2022-10-31T22:44:17.417Z,33.20
2022-10-31T22:46:43.979Z,34.47
2022-10-31T22:49:16.598Z,36.53
2022-10-31T22:51:44.505Z,35.28
2022-10-31T22:54:16.385Z,32.58
2022-10-31T22:56:43.737Z,36.08
2022-10-31T22:59:15.207Z,34.40
2022-10-31T23:01:42.180Z,33.03
2022-10-31T23:06:42.275Z,34.78
2022-10-31T23:09:13.547Z,32.60
2022-10-31T23:11:40.821Z,33.38
2022-10-31T23:14:14.342Z,35.05
2022-10-31T23:16:53.198Z,34.63
2022-10-31T23:19:23.981Z,34.65
2022-10-31T23:21:57.129Z,41.28
2022-10-31T23:24:44.490Z,32.78
2022-10-31T23:27:24.340Z,31.20
2022-10-31T23:29:53.533Z,33.50
2022-10-31T23:32:32.219Z,34.03
2022-10-31T23:35:01.838Z,34.88
2022-10-31T23:37:30.864Z,31.80
2022-10-31T23:39:58.074Z,33.72
2022-10-31T23:42:25.676Z,32.60
2022-10-31T23:44:52.885Z,30.77
2022-10-31T23:47:20.375Z,31.90
2022-10-31T23:49:47.498Z,34.67
2022-10-31T23:52:15.060Z,34.55
2022-10-31T23:54:41.706Z,33.45
2022-10-31T23:57:08.809Z,35.22
2022-10-31T23:59:36.866Z,36.20
